Time;durP1;ratioP1;P1;durP2;ratioP2;P2;SDS_P1;SDS_P2;PMS_P1;PMS_P2;Temp;Humidity;BMP_temperature;BMP_pressure;BME280_temperature;BME280_humidity;BME280_pressure;Samples;Min_cycle;Max_cycle;Signal;HPM_P1;HPM_P2
2021/10/08 00:00:39;;;;;;;2.15;0.80;;;;;;;14.18;73.27;99565.31;5097716;28;20062;-73
2021/10/08 00:03:07;;;;;;;0.57;0.57;;;;;;;14.13;73.48;99558.91;5097138;28;20084;-73
2021/10/08 00:05:33;;;;;;;2.40;0.80;;;;;;;14.13;73.80;99558.91;5097818;28;20032;-75
2021/10/08 00:08:01;;;;;;;1.27;0.98;;;;;;;14.15;73.14;99555.69;5096523;28;20104;-74
2021/10/08 00:10:27;;;;;;;3.15;0.73;;;;;;;14.22;73.99;99554.88;5097178;28;20058;-74
2021/10/08 00:12:58;;;;;;;0.90;0.80;;;;;;;14.19;73.87;99555.69;5097312;28;20059;-73
2021/10/08 00:15:23;;;;;;;1.52;0.93;;;;;;;14.12;73.73;99557.31;5097066;28;20031;-73
2021/10/08 00:17:52;;;;;;;0.90;0.90;;;;;;;14.03;72.86;99556.91;5096737;28;20038;-74
2021/10/08 00:20:21;;;;;;;0.98;0.93;;;;;;;14.00;73.72;99557.72;5080312;28;20123;-74
2021/10/08 00:22:46;;;;;;;1.75;0.70;;;;;;;14.00;73.93;99549.31;5096954;28;20028;-73
2021/10/08 00:25:17;;;;;;;3.38;0.90;;;;;;;14.04;73.29;99550.13;5096643;28;20110;-73
2021/10/08 00:27:42;;;;;;;1.60;0.80;;;;;;;14.10;73.72;99551.31;5096866;28;20059;-73
2021/10/08 00:30:08;;;;;;;1.65;1.10;;;;;;;14.15;74.43;99539.72;5096718;28;20042;-73
2021/10/08 00:32:36;;;;;;;1.02;0.80;;;;;;;14.19;73.80;99544.50;5096801;28;20205;-74
2021/10/08 00:35:07;;;;;;;0.63;0.63;;;;;;;14.15;73.44;99531.31;5096211;28;20561;-74
2021/10/08 00:37:33;;;;;;;2.22;0.82;;;;;;;14.08;70.93;99538.94;5115179;28;20027;-74
2021/10/08 00:40:01;;;;;;;1.15;0.73;;;;;;;14.16;70.91;99543.31;5096616;28;20046;-73
2021/10/08 00:42:28;;;;;;;1.00;0.90;;;;;;;14.13;71.82;99542.13;5097134;28;20043;-74
2021/10/08 00:44:54;;;;;;;0.77;0.65;;;;;;;14.15;71.91;99536.91;5096669;28;20028;-74
2021/10/08 00:47:22;;;;;;;1.27;1.08;;;;;;;14.18;72.96;99543.72;5096867;28;20148;-75
2021/10/08 00:49:48;;;;;;;1.35;0.93;;;;;;;14.23;72.99;99537.72;5096770;28;20024;-74
2021/10/08 00:52:19;;;;;;;1.10;1.02;;;;;;;14.19;73.00;99528.53;5096811;28;20037;-74
2021/10/08 00:54:45;;;;;;;3.25;0.98;;;;;;;14.21;72.75;99531.69;5096443;28;20088;-74
2021/10/08 00:57:17;;;;;;;1.60;1.25;;;;;;;14.14;73.16;99531.72;5096138;28;20048;-75
2021/10/08 00:59:43;;;;;;;0.82;0.82;;;;;;;14.14;73.15;99526.94;5097172;28;20110;-73
2021/10/08 01:02:09;;;;;;;1.77;1.35;;;;;;;14.08;72.19;99527.75;5096621;28;20177;-74
2021/10/08 01:04:48;;;;;;;1.08;0.65;;;;;;;14.16;74.13;99523.72;5080144;28;20118;-75
2021/10/08 01:07:17;;;;;;;4.15;1.15;;;;;;;14.14;73.93;99532.53;5093344;28;20132;-74
2021/10/08 01:09:45;;;;;;;1.88;1.17;;;;;;;14.12;73.92;99520.94;5093078;28;20055;-74
2021/10/08 01:12:10;;;;;;;0.93;0.93;;;;;;;14.16;73.80;99524.50;5093079;28;20128;-74
2021/10/08 01:14:36;;;;;;;1.02;1.02;;;;;;;14.15;73.37;99522.91;5092332;28;20066;-74
2021/10/08 01:17:15;;;;;;;1.45;0.98;;;;;;;14.11;73.41;99532.50;5093156;28;20064;-73
2021/10/08 01:19:41;;;;;;;1.70;1.20;;;;;;;14.11;73.89;99538.13;5092706;28;20024;-73
2021/10/08 01:22:10;;;;;;;3.67;1.00;;;;;;;14.12;73.80;99536.94;5093112;28;20038;-74
2021/10/08 01:24:36;;;;;;;1.80;1.02;;;;;;;14.09;71.31;99532.13;5093244;28;20024;-75
2021/10/08 01:27:03;;;;;;;1.33;1.08;;;;;;;14.10;73.25;99534.53;5092759;28;20386;-73
2021/10/08 01:29:45;;;;;;;0.70;0.70;;;;;;;14.11;73.97;99533.34;5093829;28;20081;-73
2021/10/08 01:32:14;;;;;;;1.25;0.88;;;;;;;14.15;73.86;99522.91;5092952;28;20109;-73
2021/10/08 01:34:40;;;;;;;4.65;0.80;;;;;;;14.16;73.77;99523.72;5092734;28;20028;-74
2021/10/08 01:37:11;;;;;;;1.17;1.00;;;;;;;14.15;73.44;99527.72;5093124;28;20105;-73
2021/10/08 01:39:37;;;;;;;0.93;0.85;;;;;;;14.22;71.85;99521.31;5092690;28;20035;-73
2021/10/08 01:42:05;;;;;;;2.10;1.33;;;;;;;14.18;72.19;99526.13;5092950;28;20378;-76
2021/10/08 01:44:34;;;;;;;1.58;1.02;;;;;;;14.21;73.09;99525.31;5093124;28;20470;-75
2021/10/08 01:46:59;;;;;;;0.70;0.70;;;;;;;14.13;72.60;99519.75;5093722;28;20032;-74
2021/10/08 01:49:28;;;;;;;0.90;0.80;;;;;;;14.20;73.85;99523.72;5092950;28;20463;-73
2021/10/08 01:51:56;;;;;;;0.80;0.80;;;;;;;14.23;73.70;99522.94;5093890;28;20455;-75
2021/10/08 01:54:25;;;;;;;0.68;0.68;;;;;;;14.23;73.07;99520.13;5092259;28;20035;-72
2021/10/08 01:56:50;;;;;;;1.60;1.08;;;;;;;14.29;72.99;99521.31;5092335;28;20093;-73
2021/10/08 01:59:16;;;;;;;0.80;0.80;;;;;;;14.27;72.81;99518.88;5092179;28;20028;-72
2021/10/08 02:01:47;;;;;;;2.13;1.05;;;;;;;14.31;72.39;99521.69;5092274;28;20431;-73
2021/10/08 02:04:16;;;;;;;1.80;0.70;;;;;;;14.34;71.86;99523.69;5093255;28;20054;-74
2021/10/08 02:06:42;;;;;;;1.40;0.80;;;;;;;14.36;72.80;99536.06;5092806;28;20028;-75
2021/10/08 02:09:10;;;;;;;2.05;0.88;;;;;;;14.41;73.28;99530.06;5092114;28;20130;-75
2021/10/08 02:11:36;;;;;;;1.27;1.00;;;;;;;14.36;72.95;99530.47;5092805;28;20027;-74
2021/10/08 02:14:03;;;;;;;0.88;0.77;;;;;;;14.43;73.39;99538.03;5092432;28;20032;-74
2021/10/08 02:16:32;;;;;;;0.95;0.90;;;;;;;14.43;73.01;99532.44;5092436;28;20096;-74
2021/10/08 02:19:02;;;;;;;22.50;14.43;;;;;;;14.45;71.54;99524.44;5092057;28;20121;-75
2021/10/08 02:21:31;;;;;;;33.78;23.27;;;;;;;14.56;71.63;99524.44;5092557;28;20028;-74
2021/10/08 02:24:00;;;;;;;36.25;22.48;;;;;;;14.57;71.75;99531.63;5091973;28;20047;-75
2021/10/08 02:26:26;;;;;;;7.72;5.68;;;;;;;14.57;70.31;99528.84;5093540;28;20032;-74
2021/10/08 02:28:55;;;;;;;7.38;4.50;;;;;;;14.64;71.68;99532.38;5095811;28;20028;-75
2021/10/08 02:31:23;;;;;;;5.63;3.50;;;;;;;14.64;71.50;99529.59;5095660;28;20031;-73
2021/10/08 02:33:50;;;;;;;4.35;2.92;;;;;;;14.68;72.18;99541.56;5095709;28;20035;-74
2021/10/08 02:36:25;;;;;;;8.65;7.72;;;;;;;14.68;71.85;99533.19;5096906;28;20028;-73
2021/10/08 02:38:54;;;;;;;17.38;15.45;;;;;;;14.70;72.37;99537.56;5095614;28;20111;-74
2021/10/08 02:41:23;;;;;;;18.63;16.73;;;;;;;14.75;71.69;99537.16;5097110;28;20103;-75
2021/10/08 02:43:49;;;;;;;20.60;18.48;;;;;;;14.70;72.24;99548.78;5095779;28;20458;-74
2021/10/08 02:46:15;;;;;;;15.25;13.65;;;;;;;14.71;72.06;99542.78;5095743;28;20035;-74
2021/10/08 02:48:40;;;;;;;8.95;8.15;;;;;;;14.72;72.29;99540.78;5095358;28;20454;-75
2021/10/08 02:51:08;;;;;;;8.57;7.72;;;;;;;14.71;72.68;99553.19;5095210;28;20032;-74
2021/10/08 02:53:40;;;;;;;12.38;11.38;;;;;;;14.73;72.42;99553.56;5095316;28;20036;-73
2021/10/08 02:56:08;;;;;;;9.32;8.60;;;;;;;14.72;72.39;99555.56;5095504;28;20497;-74
2021/10/08 02:58:36;;;;;;;11.73;10.65;;;;;;;14.68;72.23;99552.78;5095506;28;20027;-74
2021/10/08 03:01:08;;;;;;;9.85;8.80;;;;;;;14.70;71.01;99557.16;5095132;28;20024;-74
2021/10/08 03:03:36;;;;;;;9.55;8.20;;;;;;;14.70;72.01;99560.78;5095691;28;20036;-75
2021/10/08 03:06:04;;;;;;;5.75;3.65;;;;;;;14.73;71.71;99561.97;5095100;28;20093;-73
2021/10/08 03:08:32;;;;;;;3.15;2.50;;;;;;;14.74;72.37;99560.75;5094404;28;20043;-73
2021/10/08 03:10:58;;;;;;;5.35;4.13;;;;;;;14.77;72.59;99557.16;5094882;28;20020;-75
2021/10/08 03:13:26;;;;;;;6.05;5.10;;;;;;;14.79;72.64;99565.94;5095123;28;20036;-74
2021/10/08 03:15:57;;;;;;;7.82;6.30;;;;;;;14.77;71.79;99562.75;5094873;28;20020;-74
2021/10/08 03:18:26;;;;;;;6.78;4.55;;;;;;;14.80;72.33;99557.13;5094803;28;20085;-74
2021/10/08 03:20:54;;;;;;;4.70;3.60;;;;;;;14.83;72.75;99564.72;5095055;28;20031;-74
2021/10/08 03:23:20;;;;;;;5.75;4.72;;;;;;;14.80;72.49;99559.13;5094719;28;20031;-73
2021/10/08 03:25:48;;;;;;;11.65;9.48;;;;;;;14.84;72.72;99568.31;5095221;28;20024;-73
2021/10/08 03:28:17;;;;;;;6.80;5.93;;;;;;;14.86;71.89;99565.91;5094668;28;20035;-74
2021/10/08 03:30:43;;;;;;;6.45;5.50;;;;;;;14.88;72.18;99566.31;5090928;28;20047;-73
2021/10/08 03:33:12;;;;;;;10.18;9.18;;;;;;;14.87;73.30;99570.31;5094830;28;20036;-73
2021/10/08 03:35:43;;;;;;;7.32;6.35;;;;;;;14.81;72.04;99564.34;5094155;28;20071;-74
2021/10/08 03:38:15;;;;;;;9.75;7.70;;;;;;;14.76;72.22;99561.97;5093936;28;20390;-75
2021/10/08 03:40:44;;;;;;;12.02;8.93;;;;;;;14.73;72.46;99557.16;5095709;28;20034;-75
2021/10/08 03:43:16;;;;;;;6.88;6.18;;;;;;;14.72;73.15;99565.97;5094372;28;20024;-73
2021/10/08 03:45:52;;;;;;;11.27;6.78;;;;;;;14.75;73.13;99567.94;5094312;28;20081;-74
2021/10/08 03:50:59;;;;;;;6.15;3.05;;;;;;;14.82;72.44;99576.34;5095373;28;20074;-74
2021/10/08 03:53:28;;;;;;;3.58;3.28;;;;;;;14.83;73.40;99572.34;5094926;28;20024;-73
2021/10/08 03:55:57;;;;;;;4.82;4.30;;;;;;;14.79;73.08;99575.13;5094100;28;20103;-73
2021/10/08 03:58:23;;;;;;;6.85;5.32;;;;;;;14.74;73.31;99574.75;5094051;28;20031;-74
2021/10/08 04:00:51;;;;;;;6.00;5.03;;;;;;;14.78;73.53;99578.34;5094405;28;20520;-74
2021/10/08 04:03:17;;;;;;;5.10;3.50;;;;;;;14.78;73.66;99576.34;5094230;28;20429;-74
2021/10/08 04:05:48;;;;;;;2.10;1.90;;;;;;;14.83;73.36;99583.53;5093826;28;20028;-73
2021/10/08 04:08:14;;;;;;;2.65;1.80;;;;;;;14.82;73.86;99587.53;5093576;28;20052;-73
2021/10/08 04:10:40;;;;;;;1.73;1.60;;;;;;;14.79;73.58;99577.16;5093669;28;20032;-74
2021/10/08 04:13:09;;;;;;;2.20;1.80;;;;;;;14.79;73.16;99591.16;5093889;28;20042;-74
2021/10/08 04:15:34;;;;;;;1.38;1.27;;;;;;;14.80;73.24;99585.13;5094223;28;20036;-72
2021/10/08 04:18:00;;;;;;;1.75;1.52;;;;;;;14.76;73.81;99594.78;5093001;28;20032;-74
2021/10/08 04:20:28;;;;;;;2.88;1.30;;;;;;;14.64;73.54;99588.38;5093813;28;20020;-73
2021/10/08 04:22:59;;;;;;;2.17;1.48;;;;;;;14.70;74.13;99596.38;5093835;28;20089;-75
2021/10/08 04:25:28;;;;;;;3.80;2.00;;;;;;;14.78;74.93;99603.56;5094071;28;20031;-73
2021/10/08 04:27:53;;;;;;;2.15;1.77;;;;;;;14.77;74.68;99604.78;5076976;28;20039;-74
2021/10/08 04:30:25;;;;;;;0.80;0.80;;;;;;;14.82;73.62;99605.16;5093300;28;20032;-74
2021/10/08 04:32:53;;;;;;;1.00;0.93;;;;;;;14.76;73.90;99603.97;5093111;28;20101;-74
2021/10/08 04:35:21;;;;;;;5.32;1.30;;;;;;;14.72;73.75;99605.97;5093612;28;20032;-74
2021/10/08 04:37:49;;;;;;;1.90;1.40;;;;;;;14.69;74.23;99612.38;5093543;28;20090;-73
2021/10/08 04:40:19;;;;;;;3.13;1.30;;;;;;;14.71;74.63;99615.59;5093188;28;20036;-74
2021/10/08 04:42:48;;;;;;;2.05;1.23;;;;;;;14.73;74.80;99624.38;5093345;28;20032;-74
2021/10/08 04:45:16;;;;;;;1.50;1.40;;;;;;;14.71;74.07;99623.19;5093372;28;20031;-73
2021/10/08 04:47:45;;;;;;;1.92;1.70;;;;;;;14.73;74.39;99623.56;5093041;28;20035;-74
2021/10/08 04:50:11;;;;;;;1.92;1.13;;;;;;;14.72;73.96;99625.59;5092980;28;20113;-75
2021/10/08 04:52:36;;;;;;;1.73;1.20;;;;;;;14.73;73.95;99629.97;5093056;28;20066;-72
2021/10/08 04:55:05;;;;;;;2.50;0.90;;;;;;;14.71;73.86;99631.59;5092960;28;20032;-74
2021/10/08 04:57:33;;;;;;;2.10;1.13;;;;;;;14.70;74.24;99632.78;5093479;28;20406;-74
2021/10/08 05:00:05;;;;;;;2.85;1.08;;;;;;;14.71;74.51;99632.38;5092893;28;20052;-74
2021/10/08 05:02:33;;;;;;;2.70;1.10;;;;;;;14.72;74.63;99633.19;5094130;28;20028;-73
2021/10/08 05:05:06;;;;;;;5.15;1.20;;;;;;;14.75;73.47;99629.56;5093370;28;20136;-73
2021/10/08 05:07:35;;;;;;;1.50;1.00;;;;;;;14.73;73.57;99629.19;5092544;28;20047;-74
2021/10/08 05:10:01;;;;;;;3.03;1.00;;;;;;;14.81;73.46;99620.34;5093351;28;20375;-74
2021/10/08 05:12:26;;;;;;;2.45;0.93;;;;;;;14.76;74.42;99633.97;5092585;28;20024;-73
2021/10/08 05:14:53;;;;;;;3.08;1.25;;;;;;;14.80;74.78;99623.53;5092948;28;20038;-74
2021/10/08 05:17:19;;;;;;;1.48;0.90;;;;;;;14.99;73.77;99631.50;5093242;28;20040;-74
2021/10/08 05:19:44;;;;;;;1.55;0.98;;;;;;;15.37;72.95;99631.72;5093181;28;20390;-75
2021/10/08 05:22:10;;;;;;;0.75;0.75;;;;;;;15.63;71.96;99624.78;5092517;28;20032;-74
2021/10/08 05:24:36;;;;;;;1.15;1.08;;;;;;;15.59;71.71;99630.38;5092201;28;20032;-74
2021/10/08 05:27:05;;;;;;;1.02;0.80;;;;;;;15.53;71.65;99643.22;5092720;28;20100;-74
2021/10/08 05:29:33;;;;;;;1.55;1.10;;;;;;;15.42;72.66;99631.28;5092678;28;20457;-76
2021/10/08 05:32:02;;;;;;;1.92;1.38;;;;;;;15.34;73.32;99636.16;5092216;28;20081;-75
2021/10/08 05:34:33;;;;;;;1.75;1.50;;;;;;;15.27;73.08;99643.78;5092183;28;20024;-76
2021/10/08 05:37:01;;;;;;;3.80;2.92;;;;;;;15.18;74.20;99647.84;5092174;28;20028;-74
2021/10/08 05:39:30;;;;;;;36.40;25.00;;;;;;;15.12;73.78;99649.44;5092501;28;20470;-75
2021/10/08 05:41:56;;;;;;;29.08;22.13;;;;;;;15.06;74.02;99653.88;5092207;28;20039;-75
2021/10/08 05:44:24;;;;;;;8.32;6.47;;;;;;;15.04;73.51;99655.50;5091998;28;20028;-75
2021/10/08 05:46:55;;;;;;;6.78;5.43;;;;;;;14.99;73.83;99659.50;5092385;28;20122;-75
2021/10/08 05:49:21;;;;;;;3.70;3.40;;;;;;;15.01;75.94;99659.09;5092223;28;20458;-75
2021/10/08 05:51:47;;;;;;;2.40;2.22;;;;;;;14.96;75.92;99660.31;5091793;28;20024;-75
2021/10/08 05:54:15;;;;;;;2.03;1.70;;;;;;;14.96;75.85;99654.69;5092815;28;20024;-75
2021/10/08 05:56:44;;;;;;;2.47;2.28;;;;;;;15.08;75.45;99657.06;5092300;28;20035;-73
2021/10/08 05:59:10;;;;;;;1.50;1.40;;;;;;;15.14;73.07;99663.84;5092123;28;20024;-74
2021/10/08 06:01:44;;;;;;;2.67;1.60;;;;;;;15.11;71.75;99663.84;5093396;28;20039;-74
2021/10/08 06:04:11;;;;;;;0.88;0.88;;;;;;;15.16;71.21;99677.44;5096097;28;20113;-75
2021/10/08 06:06:39;;;;;;;3.28;0.90;;;;;;;15.17;71.62;99662.22;5096002;28;20131;-74
2021/10/08 06:09:09;;;;;;;1.83;1.10;;;;;;;15.20;72.70;99676.22;5095753;28;20059;-73
2021/10/08 06:11:35;;;;;;;1.85;1.20;;;;;;;15.33;72.87;99681.38;5096162;28;20040;-73
2021/10/08 06:14:06;;;;;;;1.40;1.30;;;;;;;15.33;72.20;99679.38;5095523;28;20028;-74
2021/10/08 06:16:32;;;;;;;2.53;1.00;;;;;;;15.37;73.36;99685.78;5095820;28;20028;-74
2021/10/08 06:18:57;;;;;;;1.95;1.20;;;;;;;15.51;73.40;99687.72;5096241;28;20055;-75
2021/10/08 06:21:25;;;;;;;2.35;1.52;;;;;;;15.57;73.42;99679.66;5095045;28;20028;-77
2021/10/08 06:23:51;;;;;;;1.65;1.30;;;;;;;15.56;71.93;99675.28;5095303;28;20027;-75
2021/10/08 06:26:19;;;;;;;1.40;1.30;;;;;;;15.61;72.09;99683.25;5095606;28;20028;-73
2021/10/08 06:28:45;;;;;;;5.47;1.50;;;;;;;15.73;71.51;99693.25;5096140;28;20097;-73
2021/10/08 06:31:10;;;;;;;2.00;1.30;;;;;;;15.78;70.87;99692.81;5095966;28;20454;-74
2021/10/08 06:33:38;;;;;;;1.88;0.90;;;;;;;15.79;69.47;99691.59;5095789;28;20458;-74
2021/10/08 06:36:06;;;;;;;2.28;1.08;;;;;;;15.95;69.38;99697.50;5095126;28;20024;-75
2021/10/08 06:38:34;;;;;;;2.22;0.90;;;;;;;15.95;67.95;99691.88;5095274;28;20028;-72
2021/10/08 06:41:00;;;;;;;1.20;0.88;;;;;;;16.15;68.39;99695.75;5095126;28;20058;-74
2021/10/08 06:43:31;;;;;;;0.90;0.90;;;;;;;16.28;68.17;99700.88;5095211;28;20051;-74
2021/10/08 06:46:00;;;;;;;3.20;0.88;;;;;;;16.41;67.70;99716.00;5094997;28;20035;-73
2021/10/08 06:48:26;;;;;;;3.20;0.98;;;;;;;16.54;66.21;99711.47;5094363;28;20101;-73
2021/10/08 06:50:57;;;;;;;1.33;0.82;;;;;;;16.61;65.84;99714.22;5093819;28;20390;-74
2021/10/08 06:53:24;;;;;;;3.45;0.90;;;;;;;16.73;65.79;99724.97;5093873;28;20032;-73
2021/10/08 06:55:55;;;;;;;3.47;0.98;;;;;;;16.84;65.16;99724.06;5096697;28;20028;-74
2021/10/08 06:58:26;;;;;;;1.17;0.90;;;;;;;16.99;64.25;99736.75;5095315;28;20381;-73
2021/10/08 07:00:55;;;;;;;3.47;0.80;;;;;;;17.10;63.68;99731.00;5094915;28;20031;-74
2021/10/08 07:03:21;;;;;;;1.50;0.75;;;;;;;17.10;62.91;99731.84;5094928;28;20036;-73
2021/10/08 07:05:50;;;;;;;1.08;0.63;;;;;;;17.33;62.67;99741.63;5094954;28;20028;-74
2021/10/08 07:08:16;;;;;;;3.22;0.75;;;;;;;18.52;60.54;99745.19;5094599;28;20143;-74
2021/10/08 07:10:44;;;;;;;1.63;0.70;;;;;;;18.43;58.87;99736.47;5094755;28;20119;-73
2021/10/08 07:13:13;;;;;;;2.65;0.88;;;;;;;18.41;58.39;99738.94;5093738;28;20394;-74
2021/10/08 07:15:39;;;;;;;2.80;0.60;;;;;;;18.45;57.71;99751.75;5094686;28;20028;-73
2021/10/08 07:18:13;;;;;;;0.50;0.50;;;;;;;18.59;56.93;99756.38;5094620;28;20119;-74
2021/10/08 07:20:41;;;;;;;0.43;0.43;;;;;;;18.57;56.70;99768.03;5094638;28;20038;-74
2021/10/08 07:23:07;;;;;;;1.77;0.50;;;;;;;19.25;55.32;99761.25;5094607;28;20085;-74
2021/10/08 07:25:35;;;;;;;1.02;0.88;;;;;;;20.39;51.70;99761.63;5094587;28;20122;-72
2021/10/08 07:28:08;;;;;;;3.17;0.60;;;;;;;20.53;50.80;99765.38;5094505;28;20169;-73
2021/10/08 07:30:39;;;;;;;0.60;0.60;;;;;;;20.16;50.00;99764.59;5094345;28;20088;-74
2021/10/08 07:33:04;;;;;;;1.00;0.52;;;;;;;20.04;50.59;99762.47;5094660;28;20043;-73
2021/10/08 07:35:33;;;;;;;0.50;0.50;;;;;;;20.06;50.82;99774.13;5093825;28;20024;-74
2021/10/08 07:38:04;;;;;;;0.40;0.40;;;;;;;20.74;49.14;99773.34;5094244;28;20030;-73
2021/10/08 07:40:34;;;;;;;1.90;0.60;;;;;;;20.74;48.62;99770.50;5094475;28;20436;-73
2021/10/08 07:42:59;;;;;;;0.63;0.52;;;;;;;20.80;47.94;99773.59;5094163;28;20114;-74
2021/10/08 07:45:31;;;;;;;0.65;0.50;;;;;;;20.75;47.63;99777.75;5094127;28;20059;-73
2021/10/08 07:47:56;;;;;;;1.17;0.43;;;;;;;20.70;48.30;99769.78;5095634;28;20060;-74
2021/10/08 07:50:27;;;;;;;0.40;0.38;;;;;;;20.74;48.44;99767.69;5094443;28;20063;-74
2021/10/08 07:52:56;;;;;;;1.75;0.50;;;;;;;21.84;45.60;99769.56;5094018;28;20024;-74
2021/10/08 07:55:26;;;;;;;0.45;0.45;;;;;;;22.29;45.01;99773.47;5093937;28;20028;-74
2021/10/08 07:57:55;;;;;;;0.52;0.40;;;;;;;22.37;45.33;99777.66;5093810;28;20039;-74
2021/10/08 08:00:21;;;;;;;0.75;0.75;;;;;;;22.06;45.95;99777.41;5094444;28;20031;-74
2021/10/08 08:02:46;;;;;;;0.90;0.55;;;;;;;21.38;47.79;99774.50;5093758;28;20031;-73
2021/10/08 08:05:15;;;;;;;0.93;0.70;;;;;;;21.21;48.63;99778.59;5093998;28;20035;-73
2021/10/08 08:07:41;;;;;;;1.27;0.60;;;;;;;20.92;49.03;99784.19;5093701;28;20056;-73
2021/10/08 08:10:08;;;;;;;1.02;0.50;;;;;;;21.71;47.48;99780.03;5093730;28;20024;-74
2021/10/08 08:12:35;;;;;;;0.50;0.50;;;;;;;21.97;46.34;99781.69;5094162;28;20433;-73
2021/10/08 08:15:04;;;;;;;0.57;0.43;;;;;;;21.96;46.89;99780.09;5093983;28;20451;-74
2021/10/08 08:17:30;;;;;;;0.75;0.60;;;;;;;22.06;46.35;99785.91;5093499;28;20040;-73
2021/10/08 08:19:55;;;;;;;0.45;0.45;;;;;;;21.59;47.38;99783.63;5093851;28;20069;-73
2021/10/08 08:22:24;;;;;;;0.30;0.30;;;;;;;20.79;49.01;99789.75;5093513;28;20036;-73
2021/10/08 08:24:53;;;;;;;0.95;0.50;;;;;;;20.46;49.73;99788.16;5093385;28;20020;-74
2021/10/08 08:27:19;;;;;;;0.77;0.40;;;;;;;20.11;51.13;99784.88;5093339;28;20115;-73
2021/10/08 08:29:47;;;;;;;0.70;0.40;;;;;;;19.02;53.99;99786.66;5093619;28;20095;-74
2021/10/08 08:32:15;;;;;;;2.55;0.50;;;;;;;19.17;54.02;99790.78;5093570;28;20054;-73
2021/10/08 08:34:41;;;;;;;7.07;0.50;;;;;;;18.72;55.30;99782.72;5093299;28;20031;-73
2021/10/08 08:37:10;;;;;;;2.20;0.40;;;;;;;18.72;55.58;99788.38;5093991;28;20028;-73
2021/10/08 08:39:40;;;;;;;0.45;0.43;;;;;;;19.01;54.99;99777.38;5093641;28;20024;-72
2021/10/08 08:42:06;;;;;;;0.85;0.60;;;;;;;19.32;55.11;99792.13;5093682;28;20032;-73
2021/10/08 08:44:32;;;;;;;5.60;1.80;;;;;;;20.03;53.98;99777.81;5093396;28;20386;-72
2021/10/08 08:46:58;;;;;;;1.40;0.93;;;;;;;20.53;52.73;99788.78;5092992;28;20107;-73
2021/10/08 08:49:27;;;;;;;0.60;0.60;;;;;;;20.96;50.20;99790.53;5093141;28;20458;-73
2021/10/08 08:51:55;;;;;;;0.60;0.60;;;;;;;21.38;49.24;99773.69;5092969;28;20031;-71
2021/10/08 08:54:23;;;;;;;0.90;0.90;;;;;;;21.78;48.34;99785.47;5093064;28;20059;-72
2021/10/08 08:56:49;;;;;;;0.75;0.45;;;;;;;21.61;48.65;99787.59;5092803;28;20056;-73
2021/10/08 08:59:21;;;;;;;1.17;0.63;;;;;;;21.70;48.38;99789.78;5092724;28;20055;-73
2021/10/08 09:02:03;;;;;;;2.38;0.50;;;;;;;22.35;46.40;99788.66;5093183;28;20028;-73
2021/10/08 09:04:33;;;;;;;0.65;0.50;;;;;;;22.28;45.73;99795.34;5092687;28;20027;-72
2021/10/08 09:07:00;;;;;;;0.60;0.50;;;;;;;22.92;44.67;99789.66;5093633;28;20123;-72
2021/10/08 09:09:31;;;;;;;0.50;0.50;;;;;;;23.02;44.85;99793.41;5096472;28;20031;-73
2021/10/08 09:11:59;;;;;;;1.38;0.52;;;;;;;22.58;45.17;99791.13;5095819;28;20028;-73
2021/10/08 09:14:30;;;;;;;0.60;0.50;;;;;;;22.52;45.09;99789.34;5096415;28;20055;-73
2021/10/08 09:17:10;;;;;;;0.52;0.40;;;;;;;22.49;45.69;99793.88;5095846;28;20059;-73
2021/10/08 09:20:02;;;;;;;1.02;0.40;;;;;;;21.92;46.44;99793.56;5095630;28;20047;-73
2021/10/08 09:22:39;;;;;;;0.73;0.50;;;;;;;22.38;46.09;99791.41;5096121;28;20027;-72
2021/10/08 09:25:18;;;;;;;0.65;0.65;;;;;;;22.30;46.76;99803.41;5096353;28;20032;-72
2021/10/08 09:27:48;;;;;;;1.75;0.50;;;;;;;22.34;45.93;99798.41;5095414;28;20031;-72
2021/10/08 09:30:17;;;;;;;0.30;0.30;;;;;;;22.32;45.79;99800.88;5095257;28;20040;-73
2021/10/08 09:32:45;;;;;;;0.50;0.50;;;;;;;22.65;44.96;99802.28;5095872;28;20111;-72
2021/10/08 09:35:18;;;;;;;0.40;0.40;;;;;;;22.61;45.23;99800.78;5095554;28;20031;-72
2021/10/08 09:37:52;;;;;;;0.93;0.60;;;;;;;22.39;45.45;99795.81;5095132;28;20419;-72
2021/10/08 09:40:51;;;;;;;0.60;0.60;;;;;;;22.54;45.62;99803.88;5095600;28;20039;-72
2021/10/08 09:43:23;;;;;;;0.50;0.50;;;;;;;22.43;45.21;99802.16;5114258;28;20172;-73
2021/10/08 09:45:53;;;;;;;0.30;0.30;;;;;;;22.13;45.47;99800.66;5095724;28;20036;-72
2021/10/08 09:48:21;;;;;;;0.55;0.47;;;;;;;21.97;46.04;99795.06;5095343;28;20035;-73
2021/10/08 09:51:09;;;;;;;0.40;0.40;;;;;;;21.90;45.74;99795.28;5095825;28;20526;-73
2021/10/08 09:53:54;;;;;;;0.55;0.40;;;;;;;22.18;46.03;99805.75;5095409;28;20082;-73
2021/10/08 09:56:35;;;;;;;0.40;0.40;;;;;;;22.24;45.42;99806.00;5095264;28;20105;-74
2021/10/08 09:59:06;;;;;;;0.55;0.55;;;;;;;22.15;46.18;99818.00;5112210;28;20024;-72
2021/10/08 10:01:34;;;;;;;0.60;0.60;;;;;;;21.94;46.58;99795.94;5113189;28;20035;-71
2021/10/08 10:04:02;;;;;;;0.50;0.50;;;;;;;21.83;46.86;99813.25;5113249;28;20535;-73
2021/10/08 10:06:30;;;;;;;0.40;0.40;;;;;;;21.98;46.99;99816.47;5095063;28;20038;-72
2021/10/08 10:08:57;;;;;;;1.17;0.60;;;;;;;21.92;47.15;99813.38;5091278;28;20052;-72
2021/10/08 10:11:29;;;;;;;3.10;0.50;;;;;;;21.89;47.09;99813.50;5092370;28;20073;-71
2021/10/08 10:13:57;;;;;;;0.60;0.60;;;;;;;21.93;46.44;99814.97;5092419;28;20031;-74
2021/10/08 10:16:28;;;;;;;1.50;0.65;;;;;;;21.88;46.82;99807.03;5092739;28;20028;-73
2021/10/08 10:18:58;;;;;;;0.57;0.40;;;;;;;21.95;46.66;99812.50;5091741;28;20032;-74
2021/10/08 10:21:29;;;;;;;0.45;0.45;;;;;;;22.00;46.82;99811.16;5092225;28;20105;-73
2021/10/08 10:24:00;;;;;;;0.40;0.40;;;;;;;22.22;46.24;99809.28;5092183;28;20364;-73
2021/10/08 10:26:28;;;;;;;1.48;0.40;;;;;;;22.18;46.37;99802.94;5093039;28;20024;-72
2021/10/08 10:28:55;;;;;;;1.20;0.40;;;;;;;22.22;46.02;99803.63;5092246;28;20059;-74
2021/10/08 10:31:24;;;;;;;0.40;0.40;;;;;;;22.25;46.25;99806.78;5091901;28;20375;-72
2021/10/08 10:33:55;;;;;;;1.95;0.40;;;;;;;21.93;45.81;99809.31;5092310;28;20028;-72
2021/10/08 10:36:22;;;;;;;0.82;0.30;;;;;;;21.92;45.23;99801.28;5091576;28;20020;-73
2021/10/08 10:39:14;;;;;;;0.25;0.25;;;;;;;21.60;45.97;99802.19;5091819;28;20028;-72
2021/10/08 10:41:45;;;;;;;1.65;0.40;;;;;;;21.66;46.11;99812.53;5091431;28;20028;-72
2021/10/08 10:44:15;;;;;;;0.40;0.40;;;;;;;21.49;46.62;99810.19;5091812;28;20035;-72
2021/10/08 10:46:48;;;;;;;0.20;0.20;;;;;;;21.52;47.24;99806.47;5092994;28;20481;-73
2021/10/08 10:49:38;;;;;;;0.40;0.40;;;;;;;21.36;47.61;99799.63;5094395;28;20398;-74
2021/10/08 10:52:25;;;;;;;0.57;0.20;;;;;;;21.48;47.51;99800.13;5094842;28;20146;-73
2021/10/08 10:54:53;;;;;;;1.42;0.38;;;;;;;21.30;47.13;99801.38;5094936;28;20028;-73
2021/10/08 10:57:23;;;;;;;0.50;0.40;;;;;;;21.31;47.42;99803.00;5095081;28;20474;-72
2021/10/08 10:59:49;;;;;;;0.60;0.30;;;;;;;21.44;47.61;99795.34;5095506;28;20535;-71
2021/10/08 11:02:25;;;;;;;0.60;0.60;;;;;;;21.51;47.88;99796.38;5095060;28;20028;-73
2021/10/08 11:05:20;;;;;;;0.40;0.40;;;;;;;21.40;47.97;99800.31;5094795;28;20035;-72
2021/10/08 11:08:15;;;;;;;0.60;0.60;;;;;;;21.30;48.28;99798.56;5094649;28;20052;-72
2021/10/08 11:10:44;;;;;;;0.63;0.50;;;;;;;21.28;48.49;99797.41;5094142;28;20363;-73
2021/10/08 11:13:39;;;;;;;0.82;0.82;;;;;;;21.29;48.39;99796.16;5094892;28;20036;-72
2021/10/08 11:16:11;;;;;;;1.05;0.90;;;;;;;21.14;48.78;99799.34;5094657;28;20470;-71
2021/10/08 11:18:47;;;;;;;1.63;0.93;;;;;;;21.12;49.06;99801.84;5094286;28;20068;-71
2021/10/08 11:21:29;;;;;;;0.40;0.40;;;;;;;20.97;49.40;99811.13;5094278;28;20028;-73
2021/10/08 11:24:19;;;;;;;0.40;0.40;;;;;;;21.09;49.86;99804.75;5094342;28;20028;-72
2021/10/08 11:27:00;;;;;;;1.13;0.95;;;;;;;20.87;49.96;99799.66;5082415;28;20044;-73
2021/10/08 11:29:31;;;;;;;0.82;0.82;;;;;;;20.77;50.03;99802.75;5095594;28;20039;-73
2021/10/08 11:32:03;;;;;;;0.40;0.40;;;;;;;20.56;50.23;99798.41;5095690;28;20031;-72
2021/10/08 11:34:29;;;;;;;0.75;0.40;;;;;;;20.58;50.05;99795.94;5094034;28;20035;-72
2021/10/08 11:37:01;;;;;;;0.50;0.50;;;;;;;20.67;49.59;99794.09;5094912;28;20047;-72
2021/10/08 11:39:30;;;;;;;0.75;0.75;;;;;;;20.76;49.42;99799.13;5094610;28;20521;-72
2021/10/08 11:42:27;;;;;;;1.38;0.70;;;;;;;21.32;48.00;99796.09;5096173;28;20024;-72
2021/10/08 11:45:16;;;;;;;0.50;0.50;;;;;;;21.49;46.95;99784.72;5094841;28;20047;-72